Strona główna
METAR-TAF:

METAR-TAF

Lotnisko :

Gran Canaria, Hiszpania

Port lotniczy Gran Canaria

Szerokość geograficzna: 27-56N, Długość geograficzna: 015-23W, wysokość: 23 m

Aktualna obserwacja pogody

Raport powstał 14 minut temu, godzina 17:30 UTC
Wiatr 21 kt od północ
Temperatura 19°C
Wilgotność 64%
Ciśnienie 1021 hPa
Widzialność 10 km lub więcej
Mało chmury na wysokości 2800 ft

METAR: GCLP 171730Z 36021KT 9999 FEW028 19/12 Q1021 WS ALL RWY NOSIG

czas: 17:44 (17:44 UTC)

Prognoza

Raport powstał 3 godziny i 44 minut temu, godzina 14:00 UTC
Prognoza ważna od 17 godzina 15 UTC do 18 godzina 15 UTC
Wiatr 20 kt od północ
Widzialność 10 km lub więcej
Mało chmury na wysokości 3000 ft
Przejściowo
od 17 godzina 18 UTC do 17 godzina 22 UTC
Wiatr 20 kt od północ w porywach dochodzący do 30 kt

TAF: GCLP 171400Z 1715/1815 01020KT 9999 FEW030 TX21/1814Z TN16/1806Z TEMPO 1718/1722 36020G30KT

Obserwacja i prognoza pogody dla ponad 4000 lotnisk (raport METAR i TAF).

Dostępne stacje oznaczono żółtymi i czerwonymi punktami na mapie.

Najedź kursorem aby zobaczyć nazwę stacji.

Kliknij aby zobaczyć obserwacje i prognozy pogody.

Aby zmienić mapę: kliknij na zielony przycisk z czarnym krzyżykiem, aby powiększyć; na zielony przycisk z myślnikiem, aby pomniejszyć; na zielone strzałki, aby przejść do map sąsiednich.


METAR-TAF: